Time;durP1;ratioP1;P1;durP2;ratioP2;P2;SDS_P1;SDS_P2;PMS_P1;PMS_P2;Temp;Humidity;BMP_temperature;BMP_pressure;BME280_temperature;BME280_humidity;BME280_pressure;Samples;Min_cycle;Max_cycle;Signal;HPM_P1;HPM_P2
2021/12/29 00:02:10;;;;;;;79.43;49.17;;;13.00;99.90;;;;;;5030943;28;20397;-68
2021/12/29 00:05:15;;;;;;;70.97;46.97;;;13.00;99.90;;;;;;5018512;28;20052;-68
2021/12/29 00:08:19;;;;;;;70.28;45.08;;;13.10;99.90;;;;;;5030805;28;20060;-68
2021/12/29 00:11:23;;;;;;;64.03;45.13;;;13.20;99.90;;;;;;5030741;28;20053;-68
2021/12/29 00:14:27;;;;;;;61.05;42.15;;;13.30;99.90;;;;;;5030806;28;20057;-68
2021/12/29 00:20:55;;;;;;;65.32;43.15;;;13.30;99.90;;;;;;5030682;28;20052;-68
2021/12/29 00:24:04;;;;;;;70.10;43.15;;;13.30;99.90;;;;;;5031029;28;20044;-68
2021/12/29 00:27:08;;;;;;;65.93;41.85;;;13.30;99.90;;;;;;5030706;28;20420;-68
2021/12/29 00:30:16;;;;;;;62.42;42.38;;;13.20;99.90;;;;;;5018077;28;20048;-69
2021/12/29 00:33:32;;;;;;;62.38;42.75;;;13.30;99.90;;;;;;5030485;28;20060;-69
2021/12/29 00:37:11;;;;;;;68.60;44.15;;;13.30;99.90;;;;;;4935169;28;20038;-68
2021/12/29 00:40:34;;;;;;;66.10;43.50;;;13.30;99.90;;;;;;5030519;28;20531;-69
2021/12/29 00:43:57;;;;;;;69.25;45.13;;;13.20;99.90;;;;;;5030410;28;20511;-69
2021/12/29 00:47:20;;;;;;;61.70;41.72;;;13.20;99.90;;;;;;5030239;28;20060;-69
2021/12/29 00:50:24;;;;;;;67.13;44.15;;;13.10;99.90;;;;;;5030697;28;20397;-69
2021/12/29 00:53:28;;;;;;;74.47;43.10;;;13.00;99.90;;;;;;5033651;28;20117;-69
2021/12/29 00:56:32;;;;;;;59.13;41.08;;;13.00;99.90;;;;;;5033986;28;20048;-68
2021/12/29 00:59:36;;;;;;;63.20;42.10;;;13.00;99.90;;;;;;5034068;28;20045;-68
2021/12/29 01:02:41;;;;;;;61.65;40.58;;;12.90;99.90;;;;;;5033931;28;20092;-68
2021/12/29 01:05:46;;;;;;;60.35;41.30;;;13.00;99.90;;;;;;5033523;28;20068;-68
2021/12/29 01:08:50;;;;;;;70.82;41.47;;;13.00;99.90;;;;;;5033737;28;20048;-68
2021/12/29 01:11:56;;;;;;;60.08;40.03;;;12.90;99.90;;;;;;5033576;28;20049;-68
2021/12/29 01:15:02;;;;;;;58.60;40.22;;;12.90;99.90;;;;;;5033455;28;20064;-68
2021/12/29 01:18:07;;;;;;;62.40;41.15;;;12.90;99.90;;;;;;5033323;28;20049;-68
2021/12/29 01:21:11;;;;;;;59.58;40.67;;;13.00;99.90;;;;;;5033307;28;20036;-68
2021/12/29 01:24:17;;;;;;;54.63;40.53;;;13.00;99.90;;;;;;5033224;28;20048;-68
2021/12/29 01:27:21;;;;;;;59.40;39.13;;;12.90;99.90;;;;;;5033451;28;20523;-68
2021/12/29 01:30:25;;;;;;;60.38;39.78;;;12.90;99.90;;;;;;5033240;28;20064;-70
2021/12/29 01:33:29;;;;;;;59.40;40.33;;;12.90;99.90;;;;;;5033242;28;20044;-69
2021/12/29 01:36:35;;;;;;;57.05;38.40;;;12.80;99.90;;;;;;5032928;28;20048;-68
2021/12/29 01:39:39;;;;;;;51.13;38.15;;;12.80;99.90;;;;;;5032903;28;20048;-68
2021/12/29 01:42:46;;;;;;;61.72;38.50;;;12.80;99.90;;;;;;5032914;28;20044;-68
2021/12/29 01:45:50;;;;;;;55.63;37.97;;;12.80;99.90;;;;;;5032782;28;20500;-68
2021/12/29 01:48:55;;;;;;;58.97;37.75;;;12.80;99.90;;;;;;5033111;28;20044;-68
2021/12/29 01:52:09;;;;;;;57.17;38.55;;;12.80;99.90;;;;;;5032977;28;20052;-68
2021/12/29 01:55:15;;;;;;;56.92;38.22;;;12.80;99.90;;;;;;5032815;28;20044;-68
2021/12/29 01:58:20;;;;;;;63.92;38.83;;;12.70;99.90;;;;;;5032499;28;20049;-68
2021/12/29 02:01:24;;;;;;;53.47;37.60;;;12.70;99.90;;;;;;5019819;28;20504;-68
2021/12/29 02:04:28;;;;;;;58.40;38.47;;;12.70;99.90;;;;;;5032357;28;20060;-67
2021/12/29 02:07:32;;;;;;;59.22;38.05;;;12.70;99.90;;;;;;5032218;28;20056;-68
2021/12/29 02:10:43;;;;;;;51.85;33.75;;;12.60;99.90;;;;;;5032584;28;20064;-68
2021/12/29 02:13:48;;;;;;;;;;;12.70;99.90;;;;;;5032977;28;20048;-68
2021/12/29 02:16:51;;;;;;;52.20;33.60;;;12.80;99.90;;;;;;5032418;28;20175;-68
2021/12/29 02:20:00;;;;;;;50.22;33.42;;;12.80;99.90;;;;;;5032419;28;20041;-68
2021/12/29 02:24:04;;;;;;;50.20;32.35;;;12.80;99.90;;;;;;5032235;28;20052;-68
2021/12/29 02:26:33;;;;;;;45.03;28.63;;;12.80;99.90;;;;;;5033308;28;20060;-68
2021/12/29 02:29:40;;;;;;;45.75;30.10;;;12.80;99.90;;;;;;5032143;28;20040;-68
2021/12/29 02:32:44;;;;;;;38.78;28.52;;;12.90;99.90;;;;;;5032274;28;20056;-69
2021/12/29 02:35:48;;;;;;;44.60;30.33;;;13.00;99.90;;;;;;5031869;28;20041;-68
2021/12/29 02:38:55;;;;;;;48.22;28.67;;;13.10;99.90;;;;;;5032014;28;20048;-68
2021/12/29 02:42:05;;;;;;;43.00;27.25;;;13.10;99.90;;;;;;5031663;28;20642;-68
2021/12/29 02:45:13;;;;;;;59.45;29.17;;;13.10;99.90;;;;;;5031949;28;20531;-68
2021/12/29 02:48:18;;;;;;;41.88;25.90;;;13.20;99.90;;;;;;5031729;28;20049;-68
2021/12/29 02:51:22;;;;;;;36.08;24.20;;;13.20;99.90;;;;;;5031622;28;20037;-70
2021/12/29 02:54:26;;;;;;;34.25;24.35;;;13.10;99.90;;;;;;5031969;28;20057;-68
2021/12/29 02:57:30;;;;;;;37.40;23.77;;;13.10;99.90;;;;;;5032231;28;20044;-68
2021/12/29 03:00:34;;;;;;;34.78;24.00;;;13.00;99.90;;;;;;5031446;28;20049;-69
2021/12/29 03:03:38;;;;;;;38.60;24.27;;;12.80;99.90;;;;;;5031706;28;20397;-70
2021/12/29 03:06:43;;;;;;;40.30;25.35;;;12.70;99.90;;;;;;5031112;28;20069;-68
2021/12/29 03:09:47;;;;;;;37.55;25.05;;;12.70;99.90;;;;;;5031258;28;20049;-69
2021/12/29 03:12:51;;;;;;;39.83;25.15;;;12.70;99.90;;;;;;5031102;28;20045;-69
2021/12/29 03:15:57;;;;;;;48.42;24.63;;;12.70;99.90;;;;;;5031502;28;20036;-69
2021/12/29 03:19:04;;;;;;;36.47;24.38;;;12.70;99.90;;;;;;5031340;28;20181;-69
2021/12/29 03:22:08;;;;;;;37.78;24.27;;;12.70;99.90;;;;;;5031235;28;20048;-69
2021/12/29 03:25:12;;;;;;;34.25;23.67;;;12.70;99.90;;;;;;5019151;28;20076;-69
2021/12/29 03:28:18;;;;;;;37.88;22.73;;;12.70;99.90;;;;;;5031460;28;20068;-69
2021/12/29 03:31:25;;;;;;;36.70;22.13;;;12.80;99.90;;;;;;5031251;28;20053;-69
2021/12/29 03:34:29;;;;;;;36.75;22.58;;;12.70;99.90;;;;;;5030993;28;20404;-69
2021/12/29 03:37:33;;;;;;;36.45;20.85;;;12.80;99.90;;;;;;5030997;28;20056;-69
2021/12/29 03:40:40;;;;;;;42.33;20.58;;;12.80;99.90;;;;;;5031330;28;20064;-69
2021/12/29 03:43:46;;;;;;;33.67;22.00;;;12.90;99.90;;;;;;5030879;28;20052;-69
2021/12/29 03:46:49;;;;;;;43.30;23.33;;;12.90;99.90;;;;;;5030834;28;20076;-69
2021/12/29 03:49:53;;;;;;;40.13;21.02;;;13.00;99.90;;;;;;5031121;28;20064;-69
2021/12/29 03:52:57;;;;;;;36.70;18.98;;;13.00;99.90;;;;;;5030929;28;20072;-68
2021/12/29 03:56:03;;;;;;;32.05;19.30;;;13.10;99.90;;;;;;5030590;28;20044;-69
2021/12/29 03:59:07;;;;;;;28.55;18.80;;;13.10;99.90;;;;;;5030597;28;20421;-69
2021/12/29 04:02:11;;;;;;;33.55;18.60;;;13.10;99.90;;;;;;5030582;28;20381;-69
2021/12/29 04:05:18;;;;;;;28.65;18.73;;;13.10;99.90;;;;;;5031299;28;20057;-69
2021/12/29 04:08:23;;;;;;;34.50;19.63;;;13.10;99.90;;;;;;5030798;28;20519;-69
2021/12/29 04:11:27;;;;;;;33.58;18.38;;;13.10;99.90;;;;;;5030410;28;20496;-69
2021/12/29 04:14:32;;;;;;;31.13;19.33;;;13.20;99.90;;;;;;5018534;28;20052;-69
2021/12/29 04:17:38;;;;;;;43.05;19.58;;;13.10;99.90;;;;;;5030873;28;20492;-69
2021/12/29 04:21:02;;;;;;;36.08;20.88;;;13.10;99.90;;;;;;5030873;28;20401;-68
2021/12/29 04:24:08;;;;;;;33.95;20.25;;;13.10;99.90;;;;;;5030610;28;20049;-69
2021/12/29 04:27:12;;;;;;;31.80;19.95;;;13.20;99.90;;;;;;5034504;28;20049;-69
2021/12/29 04:30:16;;;;;;;37.50;22.58;;;13.20;99.90;;;;;;5034750;28;20048;-69
2021/12/29 04:33:21;;;;;;;34.42;20.45;;;13.10;99.90;;;;;;5034489;28;20068;-69
2021/12/29 04:36:25;;;;;;;38.80;21.77;;;13.10;99.90;;;;;;5034319;28;20048;-69
2021/12/29 04:39:29;;;;;;;37.03;21.20;;;13.00;99.90;;;;;;5034032;28;20052;-69
2021/12/29 04:42:33;;;;;;;33.63;20.10;;;12.90;99.90;;;;;;5034192;28;20049;-69
2021/12/29 04:45:37;;;;;;;35.85;21.85;;;12.90;99.90;;;;;;5033957;28;20068;-69
2021/12/29 04:48:47;;;;;;;33.17;20.60;;;13.00;99.90;;;;;;5034294;28;20056;-69
2021/12/29 04:52:03;;;;;;;33.80;19.63;;;13.00;99.90;;;;;;5033651;28;20049;-69
2021/12/29 04:55:08;;;;;;;36.92;21.42;;;13.00;99.90;;;;;;5033830;28;20048;-69
2021/12/29 04:58:12;;;;;;;35.15;19.15;;;12.90;99.90;;;;;;5034150;28;20040;-69
2021/12/29 05:01:16;;;;;;;32.75;20.33;;;12.90;99.90;;;;;;5033754;28;20051;-69
2021/12/29 05:04:28;;;;;;;27.65;19.98;;;12.80;99.90;;;;;;5033793;28;20499;-69
2021/12/29 05:10:59;;;;;;;38.55;20.70;;;12.70;99.90;;;;;;5033670;28;20041;-68
2021/12/29 05:14:03;;;;;;;39.60;20.98;;;12.70;99.90;;;;;;5033857;28;20120;-68
2021/12/29 05:17:07;;;;;;;33.10;20.00;;;12.80;99.90;;;;;;5033846;28;20040;-68
2021/12/29 05:20:12;;;;;;;38.92;18.80;;;12.90;99.90;;;;;;5033367;28;20048;-68
2021/12/29 05:23:16;;;;;;;34.88;18.95;;;12.90;99.90;;;;;;5033397;28;20061;-68
2021/12/29 05:26:21;;;;;;;30.73;17.92;;;12.90;99.90;;;;;;5033008;28;20068;-69
2021/12/29 05:29:25;;;;;;;35.05;20.10;;;12.90;99.90;;;;;;5033136;28;20039;-68
2021/12/29 05:32:33;;;;;;;32.40;19.50;;;12.80;99.90;;;;;;5033159;28;20056;-67
2021/12/29 05:35:37;;;;;;;35.80;19.35;;;12.80;99.90;;;;;;5033228;28;20065;-68
2021/12/29 05:38:41;;;;;;;38.70;19.15;;;12.80;99.90;;;;;;5032856;28;20535;-69
2021/12/29 05:41:45;;;;;;;42.95;20.42;;;12.80;99.90;;;;;;5032992;28;20056;-68
2021/12/29 05:44:49;;;;;;;35.75;20.50;;;12.70;99.90;;;;;;5032876;28;20045;-69
2021/12/29 05:47:55;;;;;;;32.35;20.20;;;12.60;99.90;;;;;;5033222;28;20159;-69
2021/12/29 05:51:00;;;;;;;36.25;19.40;;;12.60;99.90;;;;;;5032662;28;20049;-69
2021/12/29 05:54:04;;;;;;;34.83;20.63;;;12.70;99.90;;;;;;5033102;28;20060;-69
2021/12/29 05:57:08;;;;;;;40.03;20.15;;;12.70;99.90;;;;;;5032729;28;20060;-68
2021/12/29 06:00:15;;;;;;;30.75;18.77;;;12.80;99.90;;;;;;5032756;28;20499;-69
2021/12/29 06:03:20;;;;;;;33.53;19.75;;;12.80;99.90;;;;;;5032783;28;20048;-69
2021/12/29 06:06:24;;;;;;;36.50;20.50;;;12.80;99.90;;;;;;5032285;28;20060;-69
2021/12/29 06:09:28;;;;;;;38.83;20.45;;;12.70;99.90;;;;;;5032376;28;20495;-69
2021/12/29 06:12:32;;;;;;;29.38;18.67;;;12.70;99.90;;;;;;5032192;28;20507;-69
2021/12/29 06:15:36;;;;;;;33.95;18.92;;;12.80;99.90;;;;;;5032228;28;20040;-69
2021/12/29 06:18:40;;;;;;;40.88;20.27;;;12.90;99.90;;;;;;5032555;28;20053;-69
2021/12/29 06:21:47;;;;;;;37.88;20.45;;;12.80;99.90;;;;;;5032373;28;20048;-68
2021/12/29 06:24:52;;;;;;;32.85;20.58;;;12.80;99.90;;;;;;5032265;28;20056;-69
2021/12/29 06:27:56;;;;;;;36.58;21.27;;;12.80;99.90;;;;;;5032411;28;20072;-69
2021/12/29 06:31:00;;;;;;;35.10;20.50;;;12.80;99.90;;;;;;5032285;28;20053;-69
2021/12/29 06:34:04;;;;;;;42.80;22.13;;;12.70;99.90;;;;;;5032263;28;20052;-69
2021/12/29 06:37:09;;;;;;;38.53;21.10;;;12.70;99.90;;;;;;5032029;28;20056;-69
2021/12/29 06:40:14;;;;;;;36.97;20.25;;;12.60;99.90;;;;;;5031965;28;20096;-61
2021/12/29 06:43:18;;;;;;;44.05;20.83;;;12.70;99.90;;;;;;5031991;28;20048;-62
2021/12/29 06:46:25;;;;;;;31.25;20.20;;;12.80;99.90;;;;;;5031680;28;20068;-62
2021/12/29 06:49:29;;;;;;;42.85;20.73;;;12.80;99.90;;;;;;5030561;28;20048;-62
2021/12/29 06:52:34;;;;;;;34.10;18.15;;;12.80;99.90;;;;;;5031448;28;20044;-63
2021/12/29 06:55:39;;;;;;;28.50;17.83;;;12.90;99.90;;;;;;5032019;28;20520;-63
2021/12/29 06:58:42;;;;;;;37.00;17.83;;;13.00;99.90;;;;;;5031729;28;20052;-63
2021/12/29 07:01:46;;;;;;;25.88;15.00;;;13.10;99.90;;;;;;5031609;28;20123;-63
2021/12/29 07:04:50;;;;;;;31.98;15.23;;;13.10;99.90;;;;;;5031464;28;20048;-62
2021/12/29 07:07:55;;;;;;;31.27;16.73;;;13.10;99.90;;;;;;5031488;28;20056;-62
2021/12/29 07:11:00;;;;;;;37.03;17.90;;;13.10;99.90;;;;;;5030961;28;20048;-63
2021/12/29 07:14:05;;;;;;;38.80;17.80;;;13.10;99.90;;;;;;5031318;28;20041;-62
2021/12/29 07:17:09;;;;;;;43.42;18.00;;;13.10;99.90;;;;;;5031152;28;20048;-62
2021/12/29 07:20:13;;;;;;;35.85;17.25;;;13.10;99.90;;;;;;5031175;28;20064;-62
2021/12/29 07:23:17;;;;;;;30.52;17.85;;;13.20;99.90;;;;;;5030874;28;20048;-62
2021/12/29 07:26:22;;;;;;;32.28;16.65;;;13.20;99.90;;;;;;5031145;28;20055;-62
2021/12/29 07:29:26;;;;;;;29.67;16.25;;;13.20;99.90;;;;;;5031194;28;20048;-62
2021/12/29 07:32:32;;;;;;;38.78;17.40;;;13.20;99.90;;;;;;5031151;28;20504;-63
2021/12/29 07:35:36;;;;;;;51.35;20.95;;;13.30;99.90;;;;;;5031355;28;20045;-62
2021/12/29 07:38:41;;;;;;;32.80;17.27;;;13.30;99.90;;;;;;5030826;28;20044;-62
2021/12/29 07:41:46;;;;;;;38.15;17.60;;;13.40;99.90;;;;;;5030690;28;20049;-62
2021/12/29 07:44:56;;;;;;;38.15;18.30;;;13.50;99.90;;;;;;5018962;28;20056;-62
2021/12/29 07:48:02;;;;;;;29.10;15.85;;;13.60;99.90;;;;;;5030899;28;20528;-62
2021/12/29 07:51:07;;;;;;;30.05;15.65;;;13.70;99.90;;;;;;5018667;28;20044;-62
2021/12/29 07:54:13;;;;;;;31.20;15.00;;;13.80;99.90;;;;;;5030827;28;20052;-62
2021/12/29 07:57:17;;;;;;;37.35;16.58;;;13.90;99.90;;;;;;5030696;28;20045;-62
2021/12/29 08:00:21;;;;;;;35.03;16.15;;;14.00;99.90;;;;;;5032818;28;20088;-63
2021/12/29 08:03:25;;;;;;;32.22;16.52;;;14.00;99.90;;;;;;5034590;28;20208;-63
2021/12/29 08:06:29;;;;;;;36.33;16.67;;;14.10;99.90;;;;;;5034361;28;20064;-63
2021/12/29 08:09:33;;;;;;;42.22;19.25;;;14.10;99.90;;;;;;5034554;28;20492;-63
2021/12/29 08:12:37;;;;;;;39.65;18.85;;;14.10;99.90;;;;;;5034497;28;20048;-63
2021/12/29 08:15:42;;;;;;;29.60;17.17;;;14.10;99.90;;;;;;5034505;28;20048;-62
2021/12/29 08:18:46;;;;;;;42.70;17.55;;;14.10;99.90;;;;;;5034889;28;20064;-62
2021/12/29 08:21:49;;;;;;;29.42;16.38;;;14.20;99.90;;;;;;5034680;28;20056;-62
2021/12/29 08:24:54;;;;;;;38.60;17.10;;;14.20;99.90;;;;;;5034568;28;20060;-62
2021/12/29 08:27:58;;;;;;;27.15;14.27;;;14.30;99.90;;;;;;5034171;28;20057;-62
2021/12/29 08:31:04;;;;;;;20.88;12.32;;;14.40;99.90;;;;;;5034308;28;20045;-62
2021/12/29 08:34:08;;;;;;;37.97;14.25;;;14.50;99.90;;;;;;5034221;28;20057;-62
2021/12/29 08:37:15;;;;;;;28.92;10.98;;;14.70;99.90;;;;;;5033371;28;20092;-62
2021/12/29 08:40:19;;;;;;;31.80;11.23;;;14.90;99.90;;;;;;5033657;28;20495;-63
2021/12/29 08:43:23;;;;;;;20.10;9.00;;;15.00;99.90;;;;;;5033678;28;20048;-63
2021/12/29 08:46:28;;;;;;;15.52;7.15;;;15.10;99.90;;;;;;5034102;28;20048;-62
2021/12/29 08:49:32;;;;;;;19.05;8.52;;;15.20;99.90;;;;;;5034238;28;20045;-62
2021/12/29 08:52:37;;;;;;;28.08;10.18;;;15.30;99.90;;;;;;5033935;28;20393;-63
2021/12/29 08:55:46;;;;;;;14.65;7.90;;;15.30;99.90;;;;;;5033671;28;20112;-63
2021/12/29 08:58:52;;;;;;;14.30;7.28;;;15.30;99.90;;;;;;5033476;28;20045;-63
2021/12/29 09:01:57;;;;;;;19.63;8.30;;;15.30;99.90;;;;;;5033356;28;20064;-62
2021/12/29 09:05:01;;;;;;;21.02;9.45;;;15.30;99.90;;;;;;5033747;28;20036;-62
2021/12/29 09:08:05;;;;;;;26.48;9.82;;;15.50;99.90;;;;;;5033392;28;20053;-61
2021/12/29 09:11:11;;;;;;;31.02;12.30;;;15.60;99.90;;;;;;5032227;28;20041;-62
2021/12/29 09:14:15;;;;;;;33.90;11.43;;;15.70;99.90;;;;;;5033526;28;20048;-62
2021/12/29 09:17:19;;;;;;;27.15;9.75;;;15.80;99.90;;;;;;5033019;28;20048;-62
2021/12/29 09:20:28;;;;;;;17.33;7.43;;;15.90;99.90;;;;;;5033172;28;20540;-62
2021/12/29 09:23:32;;;;;;;18.27;8.10;;;16.00;99.90;;;;;;5032992;28;20044;-62
2021/12/29 09:26:37;;;;;;;22.23;6.65;;;16.20;99.90;;;;;;5033045;28;20048;-62
2021/12/29 09:29:41;;;;;;;20.88;5.32;;;16.30;99.90;;;;;;5033359;28;20041;-62
2021/12/29 09:32:46;;;;;;;13.60;4.18;;;16.50;99.90;;;;;;5033159;28;20052;-63
2021/12/29 09:35:55;;;;;;;18.70;5.32;;;16.60;99.90;;;;;;5033209;28;20059;-63
2021/12/29 09:39:00;;;;;;;13.50;4.18;;;16.80;99.90;;;;;;5020940;28;20331;-63
2021/12/29 09:42:04;;;;;;;13.50;5.28;;;16.90;99.90;;;;;;5032994;28;20060;-61
2021/12/29 09:45:10;;;;;;;21.42;4.00;;;17.00;99.90;;;;;;5032892;28;20040;-61
2021/12/29 09:48:15;;;;;;;31.20;5.95;;;17.10;99.90;;;;;;5032859;28;20053;-61
2021/12/29 09:51:20;;;;;;;18.88;3.90;;;17.10;99.90;;;;;;5032792;28;20392;-62
2021/12/29 09:54:23;;;;;;;20.60;4.18;;;17.20;99.90;;;;;;5032968;28;20372;-62
2021/12/29 09:57:27;;;;;;;21.17;4.63;;;17.20;99.90;;;;;;5032619;28;20052;-61
2021/12/29 10:00:41;;;;;;;17.88;4.53;;;17.40;99.90;;;;;;5032310;28;20044;-61
2021/12/29 10:03:46;;;;;;;18.52;4.78;;;17.50;99.90;;;;;;5032548;28;20049;-63
2021/12/29 10:06:51;;;;;;;18.63;5.45;;;17.70;99.90;;;;;;5031320;28;20504;-63
2021/12/29 10:09:55;;;;;;;19.15;4.80;;;17.90;99.90;;;;;;5032248;28;20381;-65
2021/12/29 10:13:00;;;;;;;23.40;5.10;;;18.10;99.70;;;;;;5031542;28;20052;-65
2021/12/29 10:16:06;;;;;;;14.93;4.22;;;18.10;99.20;;;;;;5030620;28;20052;-63
2021/12/29 10:19:12;;;;;;;19.30;4.05;;;18.10;98.70;;;;;;5031494;28;20235;-62
2021/12/29 10:22:23;;;;;;;18.20;5.40;;;18.20;98.80;;;;;;5019625;28;20209;-62
2021/12/29 10:25:34;;;;;;;15.65;5.15;;;18.30;98.50;;;;;;5031909;28;20044;-62
2021/12/29 10:28:49;;;;;;;;;;;18.20;98.50;;;;;;5031851;28;20056;-62
2021/12/29 10:31:59;;;;;;;23.05;5.93;;;18.20;98.60;;;;;;5031417;28;19909;-62
2021/12/29 10:35:03;;;;;;;23.05;7.00;;;18.20;98.70;;;;;;5031509;28;20397;-63
2021/12/29 10:38:20;;;;;;;23.67;6.10;;;18.30;98.70;;;;;;5031910;28;20064;-61
2021/12/29 10:41:24;;;;;;;17.55;5.43;;;18.40;98.10;;;;;;5031133;28;20068;-62
2021/12/29 10:44:40;;;;;;;24.92;6.03;;;18.60;97.80;;;;;;5031278;28;20393;-62
2021/12/29 10:47:45;;;;;;;19.08;5.13;;;18.70;97.50;;;;;;5030627;28;20052;-62
2021/12/29 10:51:02;;;;;;;14.32;4.68;;;18.80;96.70;;;;;;5031398;28;20044;-62
2021/12/29 10:54:07;;;;;;;20.52;4.95;;;18.90;96.80;;;;;;5031445;28;20060;-61
2021/12/29 10:57:12;;;;;;;22.25;5.57;;;18.80;96.80;;;;;;5030549;28;20044;-63
2021/12/29 11:00:18;;;;;;;15.27;5.07;;;18.60;96.60;;;;;;5031168;28;20112;-64
2021/12/29 11:03:24;;;;;;;17.42;4.28;;;18.50;97.20;;;;;;5030982;28;20091;-65
2021/12/29 11:06:28;;;;;;;12.20;4.85;;;18.60;97.20;;;;;;5030786;28;20519;-65
2021/12/29 11:09:34;;;;;;;16.48;4.00;;;18.60;96.20;;;;;;5030979;28;20040;-64
2021/12/29 11:12:44;;;;;;;17.73;3.88;;;18.70;95.90;;;;;;5031188;28;20597;-62
2021/12/29 11:15:55;;;;;;;17.40;4.07;;;18.80;95.70;;;;;;5031007;28;20052;-62
2021/12/29 11:19:00;;;;;;;9.88;3.20;;;18.90;95.60;;;;;;5031014;28;20048;-61
2021/12/29 11:22:14;;;;;;;13.52;3.60;;;19.00;95.50;;;;;;5030992;28;20048;-62
2021/12/29 11:25:32;;;;;;;16.65;3.97;;;19.10;95.60;;;;;;5031081;28;20044;-62
2021/12/29 11:28:36;;;;;;;14.32;3.58;;;19.10;95.40;;;;;;5030764;28;20048;-62
2021/12/29 11:31:58;;;;;;;16.13;3.72;;;19.10;95.30;;;;;;5030522;28;20053;-62
2021/12/29 11:35:07;;;;;;;16.15;4.13;;;18.90;95.40;;;;;;5030115;28;20068;-62
2021/12/29 11:38:11;;;;;;;13.25;4.72;;;18.90;95.50;;;;;;5030913;28;20060;-61
2021/12/29 11:41:19;;;;;;;12.60;3.90;;;18.80;95.30;;;;;;5030340;28;20052;-61
2021/12/29 11:44:23;;;;;;;14.13;3.58;;;18.80;95.00;;;;;;5030614;28;20036;-62
2021/12/29 11:47:27;;;;;;;12.70;3.10;;;18.70;94.70;;;;;;5030400;28;20056;-62
2021/12/29 11:50:35;;;;;;;12.77;3.67;;;18.70;94.60;;;;;;5030413;28;20500;-62
2021/12/29 11:54:13;;;;;;;10.27;3.28;;;18.60;94.70;;;;;;5030628;28;20052;-63
2021/12/29 11:57:27;;;;;;;8.18;3.22;;;18.40;94.90;;;;;;5030468;28;20040;-62
2021/12/29 12:00:31;;;;;;;14.63;3.90;;;18.30;95.20;;;;;;5030187;28;20056;-63
2021/12/29 12:03:52;;;;;;;11.50;3.60;;;18.30;95.40;;;;;;5030768;28;20041;-63
2021/12/29 12:07:05;;;;;;;12.73;3.75;;;18.30;95.60;;;;;;5036359;28;20060;-63
2021/12/29 12:10:14;;;;;;;12.40;3.50;;;18.20;95.80;;;;;;5050834;28;20056;-63
2021/12/29 12:13:35;;;;;;;16.10;4.13;;;18.20;96.10;;;;;;5050926;28;20048;-63
2021/12/29 12:16:47;;;;;;;;;;;18.20;96.30;;;;;;5050866;28;20040;-63
2021/12/29 12:20:04;;;;;;;9.80;3.20;;;18.20;96.40;;;;;;5050791;28;19908;-63
2021/12/29 12:23:08;;;;;;;9.63;3.70;;;18.20;96.60;;;;;;5049185;28;20044;-62
2021/12/29 12:26:13;;;;;;;18.73;5.25;;;18.10;96.80;;;;;;5050014;28;20048;-63
2021/12/29 12:29:18;;;;;;;12.75;3.97;;;18.10;96.90;;;;;;5049274;28;20074;-62
2021/12/29 12:32:21;;;;;;;10.70;4.10;;;18.10;96.80;;;;;;5037953;28;20039;-62
2021/12/29 12:35:35;;;;;;;13.27;4.57;;;18.00;96.80;;;;;;5050203;28;20143;-63
2021/12/29 12:38:39;;;;;;;13.88;4.15;;;18.10;96.80;;;;;;5050120;28;20056;-62
2021/12/29 12:41:48;;;;;;;11.90;3.80;;;18.10;96.60;;;;;;5050381;28;20040;-62
2021/12/29 12:44:52;;;;;;;10.20;3.55;;;18.10;96.70;;;;;;5050166;28;20048;-62
2021/12/29 12:48:09;;;;;;;14.32;4.50;;;18.10;96.80;;;;;;5052702;28;20064;-63
2021/12/29 12:51:17;;;;;;;12.43;4.93;;;18.00;96.60;;;;;;5053682;28;20048;-63
2021/12/29 12:54:23;;;;;;;16.13;5.03;;;17.90;96.40;;;;;;5053644;28;20040;-63
2021/12/29 12:57:31;;;;;;;19.50;6.22;;;17.80;96.00;;;;;;5053918;28;20504;-63
2021/12/29 13:00:35;;;;;;;16.92;5.38;;;17.70;95.70;;;;;;5053363;28;20052;-63
2021/12/29 13:03:40;;;;;;;20.98;5.80;;;17.70;96.20;;;;;;5052741;28;20052;-63
2021/12/29 13:06:51;;;;;;;19.67;5.60;;;17.60;96.40;;;;;;5041568;28;20065;-63
2021/12/29 13:09:55;;;;;;;;;;;17.50;96.60;;;;;;5034010;28;20064;-63
2021/12/29 13:13:14;;;;;;;12.10;4.60;;;17.50;97.50;;;;;;5033715;28;19909;-63
2021/12/29 13:16:28;;;;;;;16.27;4.93;;;17.50;97.80;;;;;;5033456;28;20044;-61
2021/12/29 13:19:32;;;;;;;20.83;5.32;;;17.60;98.00;;;;;;5033259;28;20045;-61
2021/12/29 13:22:37;;;;;;;19.77;5.30;;;17.60;98.30;;;;;;5033210;28;20048;-61
2021/12/29 13:25:43;;;;;;;14.25;4.55;;;17.70;98.40;;;;;;5033149;28;20049;-62
2021/12/29 13:28:50;;;;;;;13.50;4.13;;;17.70;98.50;;;;;;5033300;28;20052;-62
2021/12/29 13:31:54;;;;;;;16.65;4.18;;;17.80;98.50;;;;;;5033048;28;20155;-62
2021/12/29 13:35:00;;;;;;;23.48;4.88;;;17.70;98.40;;;;;;5020517;28;20049;-62
2021/12/29 13:38:07;;;;;;;23.60;4.50;;;17.70;98.30;;;;;;5032602;28;20041;-62
2021/12/29 13:41:21;;;;;;;21.50;4.60;;;17.60;98.10;;;;;;5032883;28;20503;-61
2021/12/29 13:44:25;;;;;;;18.70;4.57;;;17.50;98.30;;;;;;5020683;28;20065;-61
2021/12/29 13:47:29;;;;;;;21.40;4.70;;;17.50;98.50;;;;;;5032727;28;20056;-61
2021/12/29 13:50:33;;;;;;;26.90;5.60;;;17.50;98.70;;;;;;5032647;28;20048;-60
2021/12/29 13:53:44;;;;;;;18.80;5.38;;;17.50;98.70;;;;;;5032681;28;20068;-60
2021/12/29 13:56:53;;;;;;;19.85;5.38;;;17.50;98.80;;;;;;5033002;28;20108;-61
2021/12/29 13:59:58;;;;;;;19.52;6.10;;;17.40;98.80;;;;;;5032653;28;20064;-60
2021/12/29 14:03:05;;;;;;;20.20;6.28;;;17.40;98.70;;;;;;5032523;28;20048;-61
2021/12/29 14:06:09;;;;;;;22.63;6.25;;;17.40;98.80;;;;;;5032289;28;20065;-61
2021/12/29 14:09:13;;;;;;;23.15;5.40;;;17.40;98.60;;;;;;5032299;28;20052;-60
2021/12/29 14:12:21;;;;;;;26.15;7.50;;;17.40;98.30;;;;;;5031907;28;20044;-61
2021/12/29 14:15:27;;;;;;;26.50;8.68;;;17.30;98.30;;;;;;5032144;28;20064;-61
2021/12/29 14:18:32;;;;;;;19.55;5.53;;;17.20;98.10;;;;;;5032466;28;20040;-60
2021/12/29 14:21:38;;;;;;;21.33;4.70;;;17.20;98.10;;;;;;5032220;28;20211;-61
2021/12/29 14:24:42;;;;;;;20.25;5.10;;;17.20;98.00;;;;;;5032205;28;20060;-60
2021/12/29 14:27:51;;;;;;;20.52;5.65;;;17.10;98.00;;;;;;5031676;28;20044;-60
2021/12/29 14:31:04;;;;;;;17.90;5.00;;;17.10;97.90;;;;;;5032143;28;20044;-59
2021/12/29 14:34:19;;;;;;;17.48;4.90;;;17.10;98.20;;;;;;5031787;28;20052;-60
2021/12/29 14:37:24;;;;;;;19.42;4.50;;;17.00;98.20;;;;;;5031577;28;20040;-61
2021/12/29 14:40:29;;;;;;;15.88;4.38;;;16.90;98.30;;;;;;5031944;28;20053;-61
2021/12/29 14:43:33;;;;;;;19.00;4.28;;;16.90;98.70;;;;;;5031779;28;20311;-61
2021/12/29 14:46:49;;;;;;;15.48;4.45;;;16.80;98.80;;;;;;5031527;28;20124;-60
2021/12/29 14:49:59;;;;;;;19.52;4.68;;;16.80;98.90;;;;;;5031741;28;20056;-60
2021/12/29 14:53:07;;;;;;;19.83;4.85;;;16.80;98.80;;;;;;5031089;28;20060;-60
2021/12/29 14:56:14;;;;;;;25.13;4.80;;;16.70;99.10;;;;;;5030076;28;20504;-60
2021/12/29 14:59:17;;;;;;;20.98;5.13;;;16.70;99.10;;;;;;5030780;28;20049;-61
2021/12/29 15:02:23;;;;;;;18.55;4.35;;;16.70;99.30;;;;;;5031297;28;20049;-61
2021/12/29 15:05:42;;;;;;;23.25;6.95;;;16.60;99.20;;;;;;5031064;28;20040;-61
2021/12/29 15:08:54;;;;;;;25.08;5.68;;;16.50;99.40;;;;;;5031136;28;20052;-61
2021/12/29 15:11:58;;;;;;;16.85;4.45;;;16.50;99.60;;;;;;5030920;28;20508;-61
2021/12/29 15:15:23;;;;;;;16.20;4.38;;;16.50;99.70;;;;;;5031218;28;20116;-61
2021/12/29 15:18:30;;;;;;;13.18;4.40;;;16.40;99.80;;;;;;5030777;28;20045;-60
2021/12/29 15:21:35;;;;;;;20.70;5.65;;;16.30;99.90;;;;;;5030540;28;20041;-61
2021/12/29 15:24:39;;;;;;;18.13;5.80;;;16.30;99.90;;;;;;5030963;28;20041;-61
2021/12/29 15:27:43;;;;;;;22.65;5.22;;;16.30;99.90;;;;;;5030589;28;20052;-60
2021/12/29 15:30:50;;;;;;;20.63;6.85;;;16.20;99.90;;;;;;5030118;28;20041;-60
2021/12/29 15:33:54;;;;;;;28.13;6.32;;;16.20;99.90;;;;;;5030396;28;20162;-60
2021/12/29 15:36:58;;;;;;;24.70;7.50;;;16.10;99.90;;;;;;5030469;28;20040;-61
2021/12/29 15:40:03;;;;;;;21.00;6.55;;;16.10;99.90;;;;;;5030391;28;20044;-62
2021/12/29 15:43:07;;;;;;;24.77;7.50;;;16.00;99.90;;;;;;5030271;28;20044;-62
2021/12/29 15:46:12;;;;;;;46.40;20.05;;;16.00;99.90;;;;;;5030811;28;20060;-62
2021/12/29 15:49:16;;;;;;;62.13;24.02;;;16.00;99.90;;;;;;5030142;28;20373;-62
2021/12/29 15:52:21;;;;;;;41.00;16.48;;;15.90;99.90;;;;;;5030482;28;20056;-64
2021/12/29 15:55:25;;;;;;;32.08;14.73;;;15.80;99.90;;;;;;5030272;28;20048;-62
2021/12/29 15:58:30;;;;;;;41.40;15.77;;;15.70;99.90;;;;;;5029056;28;20049;-62
2021/12/29 16:01:34;;;;;;;37.30;15.70;;;15.70;99.90;;;;;;5030144;28;20053;-62